sensor_id;sensor_type;location;lat;lon;timestamp;pressure;altitude;pressure_sealevel;temperature;humidity
10097;BME280;5087;42.662;23.466;2023-12-22T00:02:14;93952.72;;;-2.81;100.00
10097;BME280;5087;42.662;23.466;2023-12-22T00:04:43;93952.69;;;-2.60;100.00
10097;BME280;5087;42.662;23.466;2023-12-22T00:07:21;93898.84;;;-2.92;100.00
10097;BME280;5087;42.662;23.466;2023-12-22T00:09:50;93967.31;;;-2.52;100.00
10097;BME280;5087;42.662;23.466;2023-12-22T00:12:21;93925.34;;;-2.71;100.00
10097;BME280;5087;42.662;23.466;2023-12-22T00:14:53;93914.19;;;-2.58;100.00
10097;BME280;5087;42.662;23.466;2023-12-22T00:17:41;93916.56;;;-2.56;100.00
10097;BME280;5087;42.662;23.466;2023-12-22T00:20:15;93932.09;;;-2.13;100.00
10097;BME280;5087;42.662;23.466;2023-12-22T00:22:47;93910.59;;;-2.17;100.00
10097;BME280;5087;42.662;23.466;2023-12-22T00:25:26;93924.53;;;-1.85;100.00
10097;BME280;5087;42.662;23.466;2023-12-22T00:28:00;93912.94;;;-2.05;100.00
10097;BME280;5087;42.662;23.466;2023-12-22T00:30:30;93888.44;;;-1.97;100.00
10097;BME280;5087;42.662;23.466;2023-12-22T00:33:01;93897.91;;;-1.85;100.00
10097;BME280;5087;42.662;23.466;2023-12-22T00:35:29;93896.66;;;-1.93;100.00
10097;BME280;5087;42.662;23.466;2023-12-22T00:37:57;93879.91;;;-1.99;100.00
10097;BME280;5087;42.662;23.466;2023-12-22T00:40:25;93915.56;;;-2.00;100.00
10097;BME280;5087;42.662;23.466;2023-12-22T00:42:54;93851.28;;;-2.12;100.00
10097;BME280;5087;42.662;23.466;2023-12-22T00:45:22;93898.06;;;-1.66;100.00
10097;BME280;5087;42.662;23.466;2023-12-22T00:47:51;93845.25;;;-2.33;100.00
10097;BME280;5087;42.662;23.466;2023-12-22T00:50:23;93887.16;;;-2.10;100.00
10097;BME280;5087;42.662;23.466;2023-12-22T00:52:50;93883.22;;;-2.23;100.00
10097;BME280;5087;42.662;23.466;2023-12-22T00:55:18;93872.78;;;-2.74;100.00
10097;BME280;5087;42.662;23.466;2023-12-22T00:57:47;93885.56;;;-3.02;100.00
10097;BME280;5087;42.662;23.466;2023-12-22T01:00:16;93873.66;;;-3.30;100.00
10097;BME280;5087;42.662;23.466;2023-12-22T01:02:44;93895.16;;;-3.32;100.00
10097;BME280;5087;42.662;23.466;2023-12-22T01:05:13;93870.19;;;-3.62;100.00
10097;BME280;5087;42.662;23.466;2023-12-22T01:07:43;93839.97;;;-3.82;100.00
10097;BME280;5087;42.662;23.466;2023-12-22T01:10:11;93864.63;;;-3.66;100.00
10097;BME280;5087;42.662;23.466;2023-12-22T01:12:38;93875.78;;;-3.58;100.00
10097;BME280;5087;42.662;23.466;2023-12-22T01:15:07;93882.66;;;-3.52;100.00
10097;BME280;5087;42.662;23.466;2023-12-22T01:17:35;93900.44;;;-3.32;100.00
10097;BME280;5087;42.662;23.466;2023-12-22T01:20:08;93855.09;;;-3.56;100.00
10097;BME280;5087;42.662;23.466;2023-12-22T01:22:35;93878.19;;;-3.36;100.00
10097;BME280;5087;42.662;23.466;2023-12-22T01:25:08;93882.94;;;-3.12;100.00
10097;BME280;5087;42.662;23.466;2023-12-22T01:27:36;93881.34;;;-3.03;100.00
10097;BME280;5087;42.662;23.466;2023-12-22T01:30:08;93891.41;;;-2.90;100.00
10097;BME280;5087;42.662;23.466;2023-12-22T01:32:35;93858.47;;;-2.83;100.00
10097;BME280;5087;42.662;23.466;2023-12-22T01:35:03;93862.97;;;-2.79;100.00
10097;BME280;5087;42.662;23.466;2023-12-22T01:37:35;93843.81;;;-2.76;100.00
10097;BME280;5087;42.662;23.466;2023-12-22T01:40:04;93838.69;;;-2.57;100.00
10097;BME280;5087;42.662;23.466;2023-12-22T01:42:34;93832.25;;;-2.35;100.00
10097;BME280;5087;42.662;23.466;2023-12-22T01:45:01;93842.88;;;-2.35;100.00
10097;BME280;5087;42.662;23.466;2023-12-22T01:47:29;93866.25;;;-2.32;100.00
10097;BME280;5087;42.662;23.466;2023-12-22T01:49:57;93879.25;;;-2.25;100.00
10097;BME280;5087;42.662;23.466;2023-12-22T01:52:25;93858.72;;;-2.14;100.00
10097;BME280;5087;42.662;23.466;2023-12-22T01:54:54;93813.16;;;-2.47;100.00
10097;BME280;5087;42.662;23.466;2023-12-22T01:57:25;93825.31;;;-2.31;100.00
10097;BME280;5087;42.662;23.466;2023-12-22T01:59:56;93797.69;;;-2.35;100.00
10097;BME280;5087;42.662;23.466;2023-12-22T02:02:27;93816.94;;;-2.59;100.00
10097;BME280;5087;42.662;23.466;2023-12-22T02:04:54;93840.03;;;-2.54;100.00
10097;BME280;5087;42.662;23.466;2023-12-22T02:07:22;93810.56;;;-2.63;100.00
10097;BME280;5087;42.662;23.466;2023-12-22T02:09:49;93842.31;;;-2.27;100.00
10097;BME280;5087;42.662;23.466;2023-12-22T02:12:17;93835.41;;;-2.33;100.00
10097;BME280;5087;42.662;23.466;2023-12-22T02:14:47;93829.31;;;-2.33;100.00
10097;BME280;5087;42.662;23.466;2023-12-22T02:17:21;93822.13;;;-2.28;100.00
10097;BME280;5087;42.662;23.466;2023-12-22T02:19:51;93819.66;;;-2.19;100.00
10097;BME280;5087;42.662;23.466;2023-12-22T02:22:21;93836.34;;;-2.08;100.00
10097;BME280;5087;42.662;23.466;2023-12-22T02:24:50;93812.31;;;-2.32;100.00
10097;BME280;5087;42.662;23.466;2023-12-22T02:27:37;93842.97;;;-2.00;100.00
10097;BME280;5087;42.662;23.466;2023-12-22T02:30:09;93815.72;;;-2.27;100.00
10097;BME280;5087;42.662;23.466;2023-12-22T02:32:42;93831.41;;;-2.25;100.00
10097;BME280;5087;42.662;23.466;2023-12-22T02:35:11;93818.97;;;-2.40;100.00
10097;BME280;5087;42.662;23.466;2023-12-22T02:37:45;93828.56;;;-2.44;100.00
10097;BME280;5087;42.662;23.466;2023-12-22T02:40:16;93841.22;;;-2.26;100.00
10097;BME280;5087;42.662;23.466;2023-12-22T02:42:44;93837.50;;;-2.25;100.00
10097;BME280;5087;42.662;23.466;2023-12-22T02:45:13;93804.84;;;-2.30;100.00
10097;BME280;5087;42.662;23.466;2023-12-22T02:47:42;93811.47;;;-2.28;100.00
10097;BME280;5087;42.662;23.466;2023-12-22T02:50:12;93802.38;;;-2.16;100.00
10097;BME280;5087;42.662;23.466;2023-12-22T02:52:40;93783.56;;;-2.25;100.00
10097;BME280;5087;42.662;23.466;2023-12-22T02:55:08;93807.06;;;-2.03;100.00
10097;BME280;5087;42.662;23.466;2023-12-22T02:57:37;93770.47;;;-2.16;100.00
10097;BME280;5087;42.662;23.466;2023-12-22T03:00:06;93789.53;;;-2.04;100.00
10097;BME280;5087;42.662;23.466;2023-12-22T03:02:34;93808.34;;;-1.95;100.00
10097;BME280;5087;42.662;23.466;2023-12-22T03:05:01;93749.34;;;-2.37;100.00
10097;BME280;5087;42.662;23.466;2023-12-22T03:07:29;93803.31;;;-1.97;100.00
10097;BME280;5087;42.662;23.466;2023-12-22T03:09:57;93798.00;;;-2.02;100.00
10097;BME280;5087;42.662;23.466;2023-12-22T03:12:25;93799.06;;;-1.98;100.00
10097;BME280;5087;42.662;23.466;2023-12-22T03:14:54;93804.06;;;-1.91;100.00
10097;BME280;5087;42.662;23.466;2023-12-22T03:17:21;93760.88;;;-2.12;100.00
10097;BME280;5087;42.662;23.466;2023-12-22T03:19:48;93763.53;;;-2.12;100.00
10097;BME280;5087;42.662;23.466;2023-12-22T03:22:17;93790.03;;;-1.97;100.00
10097;BME280;5087;42.662;23.466;2023-12-22T03:24:44;93799.84;;;-1.97;100.00
10097;BME280;5087;42.662;23.466;2023-12-22T03:27:12;93783.91;;;-1.97;100.00
10097;BME280;5087;42.662;23.466;2023-12-22T03:29:42;93787.50;;;-1.78;100.00
10097;BME280;5087;42.662;23.466;2023-12-22T03:32:11;93780.94;;;-1.91;100.00
10097;BME280;5087;42.662;23.466;2023-12-22T03:34:38;93786.78;;;-1.88;100.00
10097;BME280;5087;42.662;23.466;2023-12-22T03:37:08;93793.13;;;-1.84;100.00
10097;BME280;5087;42.662;23.466;2023-12-22T03:39:35;93749.03;;;-2.30;100.00
10097;BME280;5087;42.662;23.466;2023-12-22T03:42:04;93791.28;;;-1.89;100.00
10097;BME280;5087;42.662;23.466;2023-12-22T03:44:31;93798.44;;;-1.84;100.00
10097;BME280;5087;42.662;23.466;2023-12-22T03:46:59;93771.34;;;-1.92;100.00
10097;BME280;5087;42.662;23.466;2023-12-22T03:49:31;93787.28;;;-1.86;100.00
10097;BME280;5087;42.662;23.466;2023-12-22T03:51:59;93780.06;;;-1.81;100.00
10097;BME280;5087;42.662;23.466;2023-12-22T03:54:29;93786.44;;;-1.47;100.00
10097;BME280;5087;42.662;23.466;2023-12-22T03:56:57;93772.06;;;-1.81;100.00
10097;BME280;5087;42.662;23.466;2023-12-22T03:59:24;93776.84;;;-1.78;100.00
10097;BME280;5087;42.662;23.466;2023-12-22T04:01:52;93780.56;;;-1.44;100.00
10097;BME280;5087;42.662;23.466;2023-12-22T04:04:20;93770.78;;;-1.24;100.00
10097;BME280;5087;42.662;23.466;2023-12-22T04:06:51;93773.78;;;-1.31;100.00
10097;BME280;5087;42.662;23.466;2023-12-22T04:09:19;93746.63;;;-1.57;100.00
10097;BME280;5087;42.662;23.466;2023-12-22T04:11:47;93761.84;;;-1.09;100.00
10097;BME280;5087;42.662;23.466;2023-12-22T04:14:17;93753.41;;;-0.92;100.00
10097;BME280;5087;42.662;23.466;2023-12-22T04:16:44;93748.34;;;-1.18;100.00
10097;BME280;5087;42.662;23.466;2023-12-22T04:19:13;93771.16;;;-0.64;100.00
10097;BME280;5087;42.662;23.466;2023-12-22T04:21:40;93782.78;;;-0.54;100.00
10097;BME280;5087;42.662;23.466;2023-12-22T04:24:09;93720.91;;;-0.94;100.00
10097;BME280;5087;42.662;23.466;2023-12-22T04:26:37;93728.69;;;-0.74;100.00
10097;BME280;5087;42.662;23.466;2023-12-22T04:29:05;93758.47;;;-0.28;100.00
10097;BME280;5087;42.662;23.466;2023-12-22T04:31:34;93757.41;;;-0.27;100.00
10097;BME280;5087;42.662;23.466;2023-12-22T04:34:01;93734.66;;;-0.63;100.00
10097;BME280;5087;42.662;23.466;2023-12-22T04:36:29;93694.69;;;-0.82;100.00
10097;BME280;5087;42.662;23.466;2023-12-22T04:38:56;93756.16;;;-0.35;100.00
10097;BME280;5087;42.662;23.466;2023-12-22T04:41:26;93726.25;;;-0.51;100.00
10097;BME280;5087;42.662;23.466;2023-12-22T04:43:53;93763.84;;;-0.34;100.00
10097;BME280;5087;42.662;23.466;2023-12-22T04:46:21;93726.94;;;-0.65;100.00
10097;BME280;5087;42.662;23.466;2023-12-22T04:48:49;93729.81;;;-0.61;100.00
10097;BME280;5087;42.662;23.466;2023-12-22T04:51:17;93698.56;;;-0.74;100.00
10097;BME280;5087;42.662;23.466;2023-12-22T04:53:47;93729.34;;;-0.44;100.00
10097;BME280;5087;42.662;23.466;2023-12-22T04:56:16;93769.19;;;-0.14;100.00
10097;BME280;5087;42.662;23.466;2023-12-22T04:58:46;93717.09;;;-0.26;100.00
10097;BME280;5087;42.662;23.466;2023-12-22T05:01:14;93706.66;;;-0.22;100.00
10097;BME280;5087;42.662;23.466;2023-12-22T05:03:43;93710.63;;;-0.39;100.00
10097;BME280;5087;42.662;23.466;2023-12-22T05:06:11;93714.53;;;-0.31;100.00
10097;BME280;5087;42.662;23.466;2023-12-22T05:08:39;93747.59;;;-0.13;100.00
10097;BME280;5087;42.662;23.466;2023-12-22T05:11:08;93744.53;;;-0.06;100.00
10097;BME280;5087;42.662;23.466;2023-12-22T05:13:37;93699.31;;;-0.30;100.00
10097;BME280;5087;42.662;23.466;2023-12-22T05:16:08;93735.66;;;-0.02;100.00
10097;BME280;5087;42.662;23.466;2023-12-22T05:18:35;93707.06;;;-0.15;100.00
10097;BME280;5087;42.662;23.466;2023-12-22T05:21:03;93743.03;;;0.07;100.00
10097;BME280;5087;42.662;23.466;2023-12-22T05:23:31;93741.00;;;0.18;100.00
10097;BME280;5087;42.662;23.466;2023-12-22T05:25:59;93707.00;;;-0.10;100.00
10097;BME280;5087;42.662;23.466;2023-12-22T05:28:26;93690.75;;;0.06;100.00
10097;BME280;5087;42.662;23.466;2023-12-22T05:30:57;93740.13;;;0.55;100.00
10097;BME280;5087;42.662;23.466;2023-12-22T05:33:27;93718.75;;;0.55;100.00
10097;BME280;5087;42.662;23.466;2023-12-22T05:35:55;93744.31;;;0.75;100.00
10097;BME280;5087;42.662;23.466;2023-12-22T05:38:23;93734.38;;;0.62;100.00
10097;BME280;5087;42.662;23.466;2023-12-22T05:40:51;93717.34;;;0.44;100.00
10097;BME280;5087;42.662;23.466;2023-12-22T05:43:19;93745.88;;;0.62;100.00
10097;BME280;5087;42.662;23.466;2023-12-22T05:45:49;93741.50;;;0.67;100.00
10097;BME280;5087;42.662;23.466;2023-12-22T05:48:17;93751.84;;;0.87;100.00
10097;BME280;5087;42.662;23.466;2023-12-22T05:50:49;93728.88;;;0.86;100.00
10097;BME280;5087;42.662;23.466;2023-12-22T05:53:19;93732.88;;;0.42;100.00
10097;BME280;5087;42.662;23.466;2023-12-22T05:55:47;93745.69;;;0.07;100.00
10097;BME280;5087;42.662;23.466;2023-12-22T05:58:19;93745.31;;;0.33;100.00
10097;BME280;5087;42.662;23.466;2023-12-22T06:00:47;93713.75;;;0.02;100.00
10097;BME280;5087;42.662;23.466;2023-12-22T06:03:15;93675.41;;;-0.55;100.00
10097;BME280;5087;42.662;23.466;2023-12-22T06:05:44;93735.75;;;-0.07;100.00
10097;BME280;5087;42.662;23.466;2023-12-22T06:08:17;93724.25;;;-0.40;100.00
10097;BME280;5087;42.662;23.466;2023-12-22T06:10:45;93746.13;;;-0.24;100.00
10097;BME280;5087;42.662;23.466;2023-12-22T06:13:12;93750.81;;;-0.16;100.00
10097;BME280;5087;42.662;23.466;2023-12-22T06:15:41;93758.38;;;-0.04;100.00
10097;BME280;5087;42.662;23.466;2023-12-22T06:18:08;93724.25;;;-0.21;100.00
10097;BME280;5087;42.662;23.466;2023-12-22T06:20:35;93748.88;;;0.09;100.00
10097;BME280;5087;42.662;23.466;2023-12-22T06:23:03;93733.63;;;0.09;100.00
10097;BME280;5087;42.662;23.466;2023-12-22T06:25:32;93750.59;;;-0.01;100.00
10097;BME280;5087;42.662;23.466;2023-12-22T06:28:00;93740.66;;;-0.14;100.00
10097;BME280;5087;42.662;23.466;2023-12-22T06:30:27;93749.16;;;0.07;100.00
10097;BME280;5087;42.662;23.466;2023-12-22T06:32:54;93739.38;;;0.03;100.00
10097;BME280;5087;42.662;23.466;2023-12-22T06:35:22;93746.75;;;0.25;100.00
10097;BME280;5087;42.662;23.466;2023-12-22T06:37:52;93726.66;;;0.60;100.00
10097;BME280;5087;42.662;23.466;2023-12-22T06:40:21;93767.84;;;0.73;100.00
10097;BME280;5087;42.662;23.466;2023-12-22T06:42:51;93740.56;;;0.90;100.00
10097;BME280;5087;42.662;23.466;2023-12-22T06:45:18;93728.00;;;0.91;100.00
10097;BME280;5087;42.662;23.466;2023-12-22T06:47:50;93736.88;;;1.00;100.00
10097;BME280;5087;42.662;23.466;2023-12-22T06:50:18;93749.88;;;1.21;100.00
10097;BME280;5087;42.662;23.466;2023-12-22T06:52:53;93755.59;;;1.42;100.00
10097;BME280;5087;42.662;23.466;2023-12-22T06:55:23;93712.34;;;1.12;100.00
10097;BME280;5087;42.662;23.466;2023-12-22T06:58:07;93746.09;;;1.50;100.00
10097;BME280;5087;42.662;23.466;2023-12-22T07:00:41;93705.09;;;1.26;100.00
10097;BME280;5087;42.662;23.466;2023-12-22T07:03:15;93755.19;;;1.63;100.00
10097;BME280;5087;42.662;23.466;2023-12-22T07:05:49;93695.13;;;1.04;100.00
10097;BME280;5087;42.662;23.466;2023-12-22T07:08:40;93776.59;;;1.63;100.00
10097;BME280;5087;42.662;23.466;2023-12-22T07:11:22;93764.63;;;1.46;100.00
10097;BME280;5087;42.662;23.466;2023-12-22T07:13:51;93755.00;;;1.45;100.00
10097;BME280;5087;42.662;23.466;2023-12-22T07:16:22;93748.47;;;1.51;100.00
10097;BME280;5087;42.662;23.466;2023-12-22T07:18:50;93774.16;;;1.89;100.00
10097;BME280;5087;42.662;23.466;2023-12-22T07:21:19;93718.16;;;1.42;100.00
10097;BME280;5087;42.662;23.466;2023-12-22T07:23:47;93782.09;;;1.80;100.00
10097;BME280;5087;42.662;23.466;2023-12-22T07:26:16;93714.41;;;1.43;100.00
10097;BME280;5087;42.662;23.466;2023-12-22T07:28:46;93771.88;;;1.82;100.00
10097;BME280;5087;42.662;23.466;2023-12-22T07:31:18;93751.19;;;1.74;100.00
10097;BME280;5087;42.662;23.466;2023-12-22T07:33:48;93782.19;;;1.89;100.00
10097;BME280;5087;42.662;23.466;2023-12-22T07:36:15;93779.31;;;1.85;100.00
10097;BME280;5087;42.662;23.466;2023-12-22T07:38:44;93715.59;;;1.51;100.00
10097;BME280;5087;42.662;23.466;2023-12-22T07:41:12;93773.63;;;1.50;100.00
10097;BME280;5087;42.662;23.466;2023-12-22T07:43:39;93767.50;;;1.36;100.00
10097;BME280;5087;42.662;23.466;2023-12-22T07:46:08;93741.75;;;1.12;100.00
10097;BME280;5087;42.662;23.466;2023-12-22T07:48:38;93767.50;;;1.36;100.00
10097;BME280;5087;42.662;23.466;2023-12-22T07:51:06;93776.78;;;1.52;100.00
10097;BME280;5087;42.662;23.466;2023-12-22T07:53:33;93791.88;;;1.48;100.00
10097;BME280;5087;42.662;23.466;2023-12-22T07:56:01;93803.72;;;1.84;100.00
10097;BME280;5087;42.662;23.466;2023-12-22T07:58:31;93774.56;;;1.82;100.00
10097;BME280;5087;42.662;23.466;2023-12-22T08:00:59;93800.78;;;2.08;100.00
10097;BME280;5087;42.662;23.466;2023-12-22T08:03:27;93777.28;;;2.05;100.00
10097;BME280;5087;42.662;23.466;2023-12-22T08:05:56;93787.78;;;1.65;100.00
10097;BME280;5087;42.662;23.466;2023-12-22T08:08:26;93789.28;;;1.29;100.00
10097;BME280;5087;42.662;23.466;2023-12-22T08:10:54;93819.34;;;1.90;100.00
10097;BME280;5087;42.662;23.466;2023-12-22T08:13:21;93773.66;;;2.01;100.00
10097;BME280;5087;42.662;23.466;2023-12-22T08:15:50;93765.88;;;2.13;100.00
10097;BME280;5087;42.662;23.466;2023-12-22T08:18:19;93759.03;;;2.07;100.00
10097;BME280;5087;42.662;23.466;2023-12-22T08:20:47;93809.03;;;2.57;100.00
10097;BME280;5087;42.662;23.466;2023-12-22T08:23:19;93822.97;;;2.45;100.00
10097;BME280;5087;42.662;23.466;2023-12-22T08:25:47;93839.53;;;2.25;100.00
10097;BME280;5087;42.662;23.466;2023-12-22T08:28:15;93838.31;;;2.31;100.00
10097;BME280;5087;42.662;23.466;2023-12-22T08:30:44;93798.56;;;1.87;100.00
10097;BME280;5087;42.662;23.466;2023-12-22T08:33:11;93843.38;;;2.55;100.00
10097;BME280;5087;42.662;23.466;2023-12-22T08:35:39;93821.25;;;2.27;100.00
10097;BME280;5087;42.662;23.466;2023-12-22T08:38:07;93833.56;;;2.73;100.00
10097;BME280;5087;42.662;23.466;2023-12-22T08:40:36;93779.75;;;2.38;100.00
10097;BME280;5087;42.662;23.466;2023-12-22T08:43:04;93839.66;;;2.65;100.00
10097;BME280;5087;42.662;23.466;2023-12-22T08:45:32;93829.06;;;2.60;100.00
10097;BME280;5087;42.662;23.466;2023-12-22T08:48:01;93839.41;;;2.98;100.00
10097;BME280;5087;42.662;23.466;2023-12-22T08:50:29;93784.97;;;2.66;100.00
10097;BME280;5087;42.662;23.466;2023-12-22T08:52:56;93831.38;;;2.98;100.00
10097;BME280;5087;42.662;23.466;2023-12-22T08:55:24;93815.13;;;2.94;100.00
10097;BME280;5087;42.662;23.466;2023-12-22T08:57:53;93830.25;;;3.22;100.00
10097;BME280;5087;42.662;23.466;2023-12-22T09:00:30;93800.81;;;2.76;100.00
10097;BME280;5087;42.662;23.466;2023-12-22T09:02:58;93750.72;;;2.54;100.00
10097;BME280;5087;42.662;23.466;2023-12-22T09:05:25;93830.34;;;3.39;100.00
10097;BME280;5087;42.662;23.466;2023-12-22T09:07:53;93846.72;;;3.38;100.00
10097;BME280;5087;42.662;23.466;2023-12-22T09:10:20;93850.69;;;3.40;100.00
10097;BME280;5087;42.662;23.466;2023-12-22T09:12:48;93798.59;;;3.01;100.00
10097;BME280;5087;42.662;23.466;2023-12-22T09:15:17;93859.97;;;3.34;100.00
10097;BME280;5087;42.662;23.466;2023-12-22T09:17:45;93810.16;;;3.10;100.00
10097;BME280;5087;42.662;23.466;2023-12-22T09:20:13;93814.31;;;3.16;100.00
10097;BME280;5087;42.662;23.466;2023-12-22T09:22:40;93800.19;;;3.02;100.00
10097;BME280;5087;42.662;23.466;2023-12-22T09:25:08;93847.56;;;3.15;100.00
10097;BME280;5087;42.662;23.466;2023-12-22T09:27:35;93835.88;;;2.89;100.00
10097;BME280;5087;42.662;23.466;2023-12-22T09:30:04;93858.44;;;3.10;100.00
10097;BME280;5087;42.662;23.466;2023-12-22T09:32:35;93831.06;;;2.99;100.00
10097;BME280;5087;42.662;23.466;2023-12-22T09:35:06;93776.13;;;2.57;100.00
10097;BME280;5087;42.662;23.466;2023-12-22T09:37:33;93853.13;;;2.96;100.00
10097;BME280;5087;42.662;23.466;2023-12-22T09:40:01;93847.72;;;3.10;100.00
10097;BME280;5087;42.662;23.466;2023-12-22T09:42:29;93800.31;;;2.74;100.00
10097;BME280;5087;42.662;23.466;2023-12-22T09:45:06;93836.59;;;3.03;100.00
10097;BME280;5087;42.662;23.466;2023-12-22T09:47:39;93808.88;;;2.76;100.00
10097;BME280;5087;42.662;23.466;2023-12-22T09:50:10;93831.94;;;2.86;100.00
10097;BME280;5087;42.662;23.466;2023-12-22T09:52:39;93867.06;;;3.30;100.00
10097;BME280;5087;42.662;23.466;2023-12-22T09:55:08;93830.22;;;3.13;100.00
10097;BME280;5087;42.662;23.466;2023-12-22T09:57:38;93826.88;;;3.07;100.00
10097;BME280;5087;42.662;23.466;2023-12-22T10:00:15;93818.47;;;3.31;100.00
10097;BME280;5087;42.662;23.466;2023-12-22T10:02:46;93829.28;;;3.58;100.00
10097;BME280;5087;42.662;23.466;2023-12-22T10:05:24;93808.53;;;3.32;100.00
10097;BME280;5087;42.662;23.466;2023-12-22T10:08:06;93717.44;;;2.78;100.00
10097;BME280;5087;42.662;23.466;2023-12-22T10:10:38;93816.59;;;3.32;100.00
10097;BME280;5087;42.662;23.466;2023-12-22T10:13:11;93826.69;;;3.35;100.00
10097;BME280;5087;42.662;23.466;2023-12-22T10:15:40;93754.78;;;3.06;100.00
10097;BME280;5087;42.662;23.466;2023-12-22T10:18:11;93804.94;;;3.45;100.00
10097;BME280;5087;42.662;23.466;2023-12-22T10:20:42;93802.00;;;3.56;100.00
10097;BME280;5087;42.662;23.466;2023-12-22T10:23:12;93692.31;;;3.05;100.00
10097;BME280;5087;42.662;23.466;2023-12-22T10:25:40;93696.00;;;3.27;100.00
10097;BME280;5087;42.662;23.466;2023-12-22T10:28:10;93697.31;;;3.38;100.00
10097;BME280;5087;42.662;23.466;2023-12-22T10:30:53;93706.63;;;3.32;100.00
10097;BME280;5087;42.662;23.466;2023-12-22T10:33:29;93720.19;;;3.44;100.00
10097;BME280;5087;42.662;23.466;2023-12-22T10:35:58;93724.63;;;3.40;100.00
10097;BME280;5087;42.662;23.466;2023-12-22T10:38:32;93766.69;;;3.89;100.00
10097;BME280;5087;42.662;23.466;2023-12-22T10:41:02;93697.16;;;3.43;100.00
10097;BME280;5087;42.662;23.466;2023-12-22T10:43:29;93731.16;;;3.74;100.00
10097;BME280;5087;42.662;23.466;2023-12-22T10:45:57;93739.41;;;3.87;100.00
10097;BME280;5087;42.662;23.466;2023-12-22T10:48:26;93721.22;;;4.10;100.00
10097;BME280;5087;42.662;23.466;2023-12-22T10:50:54;93694.69;;;4.17;100.00
10097;BME280;5087;42.662;23.466;2023-12-22T10:53:22;93718.84;;;4.43;100.00
10097;BME280;5087;42.662;23.466;2023-12-22T10:55:51;93690.38;;;4.42;100.00
10097;BME280;5087;42.662;23.466;2023-12-22T10:58:19;93711.16;;;4.81;100.00
10097;BME280;5087;42.662;23.466;2023-12-22T11:00:48;93706.75;;;4.76;100.00
10097;BME280;5087;42.662;23.466;2023-12-22T11:03:23;93721.53;;;5.09;100.00
10097;BME280;5087;42.662;23.466;2023-12-22T11:05:55;93714.09;;;5.05;100.00
10097;BME280;5087;42.662;23.466;2023-12-22T11:08:26;93675.97;;;5.03;100.00
10097;BME280;5087;42.662;23.466;2023-12-22T11:11:05;93639.25;;;5.07;100.00
10097;BME280;5087;42.662;23.466;2023-12-22T11:13:37;93718.19;;;5.50;100.00
10097;BME280;5087;42.662;23.466;2023-12-22T11:16:07;93703.81;;;5.67;100.00
10097;BME280;5087;42.662;23.466;2023-12-22T11:18:35;93711.88;;;4.42;100.00
10097;BME280;5087;42.662;23.466;2023-12-22T11:21:06;93659.69;;;4.52;100.00
10097;BME280;5087;42.662;23.466;2023-12-22T11:23:41;93682.78;;;4.53;100.00
10097;BME280;5087;42.662;23.466;2023-12-22T11:26:11;93693.81;;;4.69;100.00
10097;BME280;5087;42.662;23.466;2023-12-22T11:28:40;93707.47;;;4.38;100.00
10097;BME280;5087;42.662;23.466;2023-12-22T11:31:10;93652.38;;;3.79;100.00
10097;BME280;5087;42.662;23.466;2023-12-22T11:33:40;93663.09;;;3.79;100.00
10097;BME280;5087;42.662;23.466;2023-12-22T11:36:18;93643.38;;;3.66;100.00
10097;BME280;5087;42.662;23.466;2023-12-22T11:38:46;93671.16;;;3.70;100.00
10097;BME280;5087;42.662;23.466;2023-12-22T11:41:24;93706.06;;;3.88;100.00
10097;BME280;5087;42.662;23.466;2023-12-22T11:43:54;93729.75;;;3.94;100.00
10097;BME280;5087;42.662;23.466;2023-12-22T11:46:22;93679.03;;;3.58;100.00
10097;BME280;5087;42.662;23.466;2023-12-22T11:48:52;93733.22;;;3.86;100.00
10097;BME280;5087;42.662;23.466;2023-12-22T11:51:23;93692.19;;;3.86;100.00
10097;BME280;5087;42.662;23.466;2023-12-22T11:54:03;93746.00;;;4.33;100.00
10097;BME280;5087;42.662;23.466;2023-12-22T11:56:31;93729.44;;;4.31;100.00
10097;BME280;5087;42.662;23.466;2023-12-22T11:58:59;93728.81;;;4.25;100.00
10097;BME280;5087;42.662;23.466;2023-12-22T12:01:27;93729.41;;;4.49;100.00
10097;BME280;5087;42.662;23.466;2023-12-22T12:03:58;93695.00;;;4.24;100.00
10097;BME280;5087;42.662;23.466;2023-12-22T12:06:36;93646.38;;;4.08;100.00
10097;BME280;5087;42.662;23.466;2023-12-22T12:09:07;93740.63;;;4.68;100.00
10097;BME280;5087;42.662;23.466;2023-12-22T12:14:48;93692.22;;;4.68;100.00
10097;BME280;5087;42.662;23.466;2023-12-22T12:17:22;93728.78;;;5.08;100.00
10097;BME280;5087;42.662;23.466;2023-12-22T12:19:51;93671.50;;;4.69;100.00
10097;BME280;5087;42.662;23.466;2023-12-22T12:22:28;93615.31;;;4.85;100.00
10097;BME280;5087;42.662;23.466;2023-12-22T12:25:11;93729.84;;;5.25;100.00
10097;BME280;5087;42.662;23.466;2023-12-22T12:27:45;93643.81;;;4.12;100.00
10097;BME280;5087;42.662;23.466;2023-12-22T12:30:19;93746.28;;;4.75;100.00
10097;BME280;5087;42.662;23.466;2023-12-22T12:32:54;93626.31;;;3.97;100.00
10097;BME280;5087;42.662;23.466;2023-12-22T12:35:36;93658.78;;;4.39;100.00
10097;BME280;5087;42.662;23.466;2023-12-22T12:38:06;93664.03;;;4.36;100.00
10097;BME280;5087;42.662;23.466;2023-12-22T12:40:36;93694.25;;;4.71;100.00
10097;BME280;5087;42.662;23.466;2023-12-22T12:43:07;93624.09;;;3.99;100.00
10097;BME280;5087;42.662;23.466;2023-12-22T12:45:37;93631.19;;;4.12;100.00
10097;BME280;5087;42.662;23.466;2023-12-22T12:48:05;93709.81;;;4.48;100.00
10097;BME280;5087;42.662;23.466;2023-12-22T12:50:34;93617.75;;;4.12;100.00
10097;BME280;5087;42.662;23.466;2023-12-22T12:53:07;93719.91;;;4.60;100.00
10097;BME280;5087;42.662;23.466;2023-12-22T12:55:37;93663.66;;;4.46;100.00
10097;BME280;5087;42.662;23.466;2023-12-22T12:58:05;93678.91;;;4.81;100.00
10097;BME280;5087;42.662;23.466;2023-12-22T13:00:33;93648.66;;;4.54;100.00
10097;BME280;5087;42.662;23.466;2023-12-22T13:03:05;93707.50;;;4.85;100.00
10097;BME280;5087;42.662;23.466;2023-12-22T13:05:35;93663.03;;;4.49;100.00
10097;BME280;5087;42.662;23.466;2023-12-22T13:08:09;93692.72;;;4.62;100.00
10097;BME280;5087;42.662;23.466;2023-12-22T13:10:40;93659.38;;;4.54;100.00
10097;BME280;5087;42.662;23.466;2023-12-22T13:13:09;93736.56;;;5.01;100.00